Orderville, Utah
Current Conditions -  °F | °C
As of 8:35 PM on Monday 26 Jan 2015 (Local Time) from KAZC Reporting Station
Clear Clear  
Wind Chill: 53°   Ceiling: Unl
Heat Index: 53°   Visibility: 10mi
Dew Point: 26°   Wind: 14mph
Humidity: 35%   Direction: 60°ENE
Pressure: 30.24"   Gusts: NA
Location:  37.28°N, 112.64°W
Report Text: KAZC 270335Z AUTO 06012KT 10SM CLR 12/M03 A3024 RMK AO2 T01151035
Loading
Personal Weather Stations






























Interactive Weather Map New forecast layout! Learn more

10-Day Weather Forecast

Advertisements
Track Severe Weather on mobile